KOXC/OXC METAR and TAF weather

Enter ICAO airport designator
Station Type Date Time Source
KOXC METAR 2020/08/10 17:51 UTC NOAA

KOXC 101751Z 26004KT 10SM BKN055 31/20 A3004 RMK AO2 SLP175 T03110200 10317 20222 58013


Station Type Date Time Source
KOXC Decoded METAR 2020/08/10 17:51 UTC NOAA

Oxford, Waterbury-Oxford Airport, CT, United States (KOXC) 41-29N 073-08W
Aug 10, 2020 - 01:51 PM EDT / 2020.08.10 1751 UTC
Wind: from the W (260 degrees) at 5 MPH (4 KT):0
Visibility: 10 mile(s):0
Sky conditions: mostly cloudy
Temperature: 88.0 F (31.1 C)
Dew Point: 68.0 F (20.0 C)
Relative Humidity: 51%
Pressure (altimeter): 30.04 in. Hg (1017 hPa)
Pressure tendency: 0.04 inches (1.3 hPa) lower than three hours ago
ob: KOXC 101751Z 26004KT 10SM BKN055 31/20 A3004 RMK AO2 SLP175 T03110200 10317 20222 58013
cycle: 18

Station Type Date Time Source
KOXC TAF UTC NOAA

Error!

Example: see airport list